createdAt,value
2022-10-04T00:02:13.783Z,98290.02
2022-10-04T00:04:47.547Z,98290.88
2022-10-04T00:07:24.118Z,98289.80
2022-10-04T00:09:58.119Z,98291.11
2022-10-04T00:12:39.786Z,98292.98
2022-10-04T00:15:32.317Z,98295.72
2022-10-04T00:18:12.423Z,98300.39
2022-10-04T00:20:53.837Z,98298.77
2022-10-04T00:23:24.829Z,98300.41
2022-10-04T00:26:01.308Z,98301.54
2022-10-04T00:28:37.336Z,98299.92
2022-10-04T00:31:19.702Z,98298.27
2022-10-04T00:34:03.942Z,98292.55
2022-10-04T00:36:46.915Z,98289.36
2022-10-04T00:39:27.566Z,98289.28
2022-10-04T00:42:17.152Z,98288.50
2022-10-04T00:45:13.762Z,98292.15
2022-10-04T00:48:10.062Z,98296.58
2022-10-04T00:50:55.977Z,98297.52
2022-10-04T00:53:38.039Z,98294.56
2022-10-04T00:56:14.448Z,98296.91
2022-10-04T00:58:53.185Z,98291.79
2022-10-04T01:01:26.670Z,98289.78
2022-10-04T01:03:59.042Z,98290.73
2022-10-04T01:06:28.131Z,98286.68
2022-10-04T01:09:07.489Z,98282.67
2022-10-04T01:11:44.877Z,98284.95
2022-10-04T01:14:48.687Z,98288.65
2022-10-04T01:17:16.782Z,98288.66
2022-10-04T01:19:53.624Z,98287.33
2022-10-04T01:22:35.581Z,98293.38
2022-10-04T01:25:04.616Z,98292.83
2022-10-04T01:27:55.547Z,98293.69
2022-10-04T01:30:23.766Z,98292.84
2022-10-04T01:32:51.933Z,98295.56
2022-10-04T01:35:20.478Z,98296.09
2022-10-04T01:37:48.590Z,98294.34
2022-10-04T01:40:17.018Z,98290.83
2022-10-04T01:42:57.910Z,98292.94
2022-10-04T01:45:48.280Z,98299.66
2022-10-04T01:48:22.004Z,98301.34
2022-10-04T01:51:24.564Z,98299.69
2022-10-04T01:54:18.562Z,98301.64
2022-10-04T01:56:53.381Z,98304.44
2022-10-04T01:59:29.808Z,98303.90
2022-10-04T02:02:05.943Z,98302.87
2022-10-04T02:04:38.897Z,98301.58
2022-10-04T02:07:16.088Z,98313.48
2022-10-04T02:09:48.024Z,98313.52
2022-10-04T02:12:18.679Z,98309.52
2022-10-04T02:14:55.985Z,98308.75
2022-10-04T02:17:29.441Z,98305.91
2022-10-04T02:20:01.557Z,98303.35
2022-10-04T02:22:30.652Z,98306.96
2022-10-04T02:24:59.528Z,98306.04
2022-10-04T02:27:30.229Z,98307.05
2022-10-04T02:30:08.827Z,98313.05
2022-10-04T02:32:57.559Z,98314.94
2022-10-04T02:35:29.663Z,98314.98
2022-10-04T02:38:19.466Z,98318.70
2022-10-04T02:40:57.285Z,98321.23
2022-10-04T02:43:31.143Z,98323.92
2022-10-04T02:46:12.854Z,98327.22
2022-10-04T02:48:45.888Z,98331.56
2022-10-04T02:51:16.825Z,98336.23
2022-10-04T02:54:03.832Z,98336.70
2022-10-04T02:56:34.326Z,98341.79
2022-10-04T02:59:08.041Z,98337.80
2022-10-04T03:01:44.165Z,98339.13
2022-10-04T03:04:15.207Z,98350.82
2022-10-04T03:06:48.007Z,98355.71
2022-10-04T03:09:17.911Z,98354.04
2022-10-04T03:11:47.867Z,98357.16
2022-10-04T03:14:22.133Z,98357.85
2022-10-04T03:16:55.865Z,98356.98
2022-10-04T03:19:26.919Z,98359.79
2022-10-04T03:21:59.927Z,98361.22
2022-10-04T03:24:40.293Z,98362.50
2022-10-04T03:27:14.537Z,98364.05
2022-10-04T03:29:43.426Z,98368.44
2022-10-04T03:32:16.047Z,98371.10
2022-10-04T03:34:58.289Z,98374.17
2022-10-04T03:37:29.561Z,98375.98
2022-10-04T03:40:00.041Z,98378.44
2022-10-04T03:42:31.847Z,98377.37
2022-10-04T03:45:15.735Z,98375.04
2022-10-04T03:47:48.638Z,98377.30
2022-10-04T03:50:32.774Z,98380.81
2022-10-04T03:53:07.513Z,98384.55
2022-10-04T03:55:43.862Z,98386.27
2022-10-04T03:58:16.138Z,98387.37
2022-10-04T04:00:57.173Z,98386.68
2022-10-04T04:03:33.517Z,98393.53
2022-10-04T04:06:10.745Z,98400.58
2022-10-04T04:08:44.913Z,98405.05
2022-10-04T04:11:20.527Z,98407.75
2022-10-04T04:14:01.287Z,98411.11
2022-10-04T04:16:30.676Z,98417.79
2022-10-04T04:19:02.789Z,98415.35
2022-10-04T04:21:33.252Z,98421.51
2022-10-04T04:24:08.577Z,98423.52
2022-10-04T04:26:45.992Z,98426.68
2022-10-04T04:29:20.377Z,98430.38
2022-10-04T04:32:20.571Z,98434.75
2022-10-04T04:35:29.764Z,98437.86
2022-10-04T04:38:27.529Z,98445.10
2022-10-04T04:41:13.087Z,98446.05
2022-10-04T04:44:11.367Z,98447.33
2022-10-04T04:46:45.905Z,98453.45
2022-10-04T04:49:20.655Z,98456.97
2022-10-04T04:52:17.101Z,98460.80
2022-10-04T04:55:06.023Z,98466.79
2022-10-04T04:57:39.518Z,98465.49
2022-10-04T05:00:51.551Z,98469.60
2022-10-04T05:03:22.049Z,98473.65
2022-10-04T05:06:40.200Z,98479.58
2022-10-04T05:09:41.661Z,98485.30
2022-10-04T05:12:22.133Z,98487.98
2022-10-04T05:14:54.987Z,98482.84
2022-10-04T05:17:32.508Z,98487.40
2022-10-04T05:20:24.152Z,98491.41
2022-10-04T05:22:53.977Z,98494.21
2022-10-04T05:25:36.982Z,98499.02
2022-10-04T05:28:16.204Z,98504.43
2022-10-04T05:30:48.877Z,98508.76
2022-10-04T05:34:15.202Z,98509.88
2022-10-04T05:37:12.609Z,98504.80
2022-10-04T05:40:08.228Z,98509.44
2022-10-04T05:43:07.849Z,98511.13
2022-10-04T05:46:11.241Z,98520.90
2022-10-04T05:48:43.472Z,98523.62
2022-10-04T05:51:52.029Z,98523.02
2022-10-04T05:54:24.743Z,98523.46
2022-10-04T05:57:08.523Z,98525.14
2022-10-04T06:00:10.762Z,98529.01
2022-10-04T06:03:07.125Z,98531.38
2022-10-04T06:05:49.967Z,98529.80
2022-10-04T06:08:55.363Z,98526.91
2022-10-04T06:12:02.396Z,98532.45
2022-10-04T06:15:08.748Z,98532.70
2022-10-04T06:18:11.110Z,98538.68
2022-10-04T06:30:19.718Z,98544.05
2022-10-04T06:33:15.467Z,98545.19
2022-10-04T06:36:04.727Z,98547.19
2022-10-04T06:38:48.215Z,98544.70
2022-10-04T06:41:32.459Z,98543.95
2022-10-04T06:44:48.001Z,98540.20
2022-10-04T06:48:04.246Z,98540.85
2022-10-04T06:50:52.318Z,98547.21
2022-10-04T06:53:32.612Z,98550.73
2022-10-04T06:56:14.976Z,98551.11
2022-10-04T06:59:15.119Z,98552.52
2022-10-04T07:01:59.178Z,98548.62
2022-10-04T07:05:08.130Z,98550.85
2022-10-04T07:08:35.529Z,98550.83
2022-10-04T07:11:35.594Z,98551.23
2022-10-04T07:14:04.519Z,98553.46
2022-10-04T07:17:10.859Z,98559.77
2022-10-04T07:19:53.279Z,98565.20
2022-10-04T07:22:36.531Z,98571.34
2022-10-04T07:25:21.452Z,98569.52
2022-10-04T07:28:26.432Z,98567.71
2022-10-04T07:31:36.134Z,98567.24
2022-10-04T07:37:13.123Z,98573.00
2022-10-04T07:39:55.153Z,98573.80
2022-10-04T07:43:01.067Z,98575.80
2022-10-04T07:45:35.875Z,98578.91
2022-10-04T07:48:18.015Z,98584.79
2022-10-04T07:51:22.240Z,98584.57
2022-10-04T07:54:14.907Z,98586.60
2022-10-04T07:56:59.374Z,98583.98
2022-10-04T07:59:39.441Z,98580.98
2022-10-04T08:02:33.822Z,98583.08
2022-10-04T08:05:45.949Z,98582.46
2022-10-04T08:09:01.907Z,98583.55
2022-10-04T08:11:38.147Z,98583.86
2022-10-04T08:14:24.588Z,98585.84
2022-10-04T08:16:55.382Z,98590.16
2022-10-04T08:19:29.555Z,98590.24
2022-10-04T08:22:26.584Z,98591.20
2022-10-04T08:25:14.996Z,98585.51
2022-10-04T08:28:28.411Z,98588.98
2022-10-04T08:31:39.550Z,98587.73
2022-10-04T08:34:43.321Z,98585.58
2022-10-04T08:37:26.120Z,98587.98
2022-10-04T08:40:18.375Z,98590.06
2022-10-04T08:43:14.089Z,98586.59
2022-10-04T08:45:55.475Z,98591.16
2022-10-04T08:49:05.199Z,98592.65
2022-10-04T08:51:36.640Z,98593.41
2022-10-04T08:54:36.820Z,98594.82
2022-10-04T08:57:05.275Z,98598.07
2022-10-04T09:00:01.309Z,98600.55
2022-10-04T09:02:50.728Z,98601.91
2022-10-04T09:05:29.627Z,98599.24
2022-10-04T09:08:27.084Z,98596.69
2022-10-04T09:11:41.654Z,98594.30
2022-10-04T09:14:36.891Z,98596.93
2022-10-04T09:17:33.528Z,98600.27
2022-10-04T09:20:38.816Z,98599.74
2022-10-04T09:23:37.635Z,98600.56
2022-10-04T09:26:30.259Z,98603.53
2022-10-04T09:29:16.312Z,98607.21
2022-10-04T09:32:29.156Z,98609.28
2022-10-04T09:35:50.978Z,98605.70
2022-10-04T09:38:40.923Z,98607.67
2022-10-04T09:41:25.179Z,98608.79
2022-10-04T09:44:17.574Z,98608.89
2022-10-04T09:47:03.682Z,98605.05
2022-10-04T09:49:41.019Z,98605.58
2022-10-04T09:52:39.185Z,98607.19
2022-10-04T09:55:36.072Z,98607.27
2022-10-04T09:58:29.652Z,98608.44
2022-10-04T10:01:28.133Z,98611.75
2022-10-04T10:04:48.871Z,98611.20
2022-10-04T10:07:33.174Z,98611.02
2022-10-04T10:10:57.146Z,98609.46
2022-10-04T10:14:00.504Z,98607.48
2022-10-04T10:17:05.407Z,98607.09
2022-10-04T10:19:48.172Z,98603.55
2022-10-04T10:22:46.968Z,98603.89
2022-10-04T10:26:13.883Z,98601.63
2022-10-04T10:29:19.367Z,98601.55
2022-10-04T10:39:40.429Z,98603.36
2022-10-04T10:42:35.809Z,98598.80
2022-10-04T10:45:24.973Z,98596.80
2022-10-04T10:48:14.288Z,98595.79
2022-10-04T10:51:39.203Z,98593.41
2022-10-04T10:54:50.598Z,98590.61
2022-10-04T10:57:37.400Z,98582.55
2022-10-04T11:00:21.919Z,98582.47
2022-10-04T11:03:32.370Z,98578.20
2022-10-04T11:06:14.218Z,98578.66
2022-10-04T11:09:40.109Z,98575.90
2022-10-04T11:13:00.475Z,98577.33
2022-10-04T11:15:38.594Z,98581.54
2022-10-04T11:18:55.349Z,98580.96
2022-10-04T11:21:38.918Z,98581.91
2022-10-04T11:24:47.240Z,98584.70
2022-10-04T11:27:47.823Z,98588.48
2022-10-04T11:30:31.050Z,98589.11
2022-10-04T11:33:33.107Z,98592.68
2022-10-04T11:36:14.383Z,98596.15
2022-10-04T11:39:16.009Z,98601.73
2022-10-04T11:41:50.623Z,98609.98
2022-10-04T11:44:21.252Z,98609.43
2022-10-04T11:47:19.105Z,98607.13
2022-10-04T11:50:08.946Z,98600.75
2022-10-04T11:53:04.925Z,98599.95
2022-10-04T11:56:40.238Z,98602.11
2022-10-04T11:59:28.522Z,98595.27
2022-10-04T12:02:36.689Z,98593.85
2022-10-04T12:05:08.946Z,98601.24
2022-10-04T12:08:18.089Z,98608.81
2022-10-04T12:11:55.214Z,98611.98
2022-10-04T12:18:21.542Z,98617.30
2022-10-04T12:21:23.956Z,98618.55
2022-10-04T12:24:31.038Z,98613.82
2022-10-04T12:27:00.350Z,98619.66
2022-10-04T12:30:00.505Z,98617.81
2022-10-04T12:32:31.793Z,98619.70
2022-10-04T12:35:49.140Z,98619.09
2022-10-04T12:39:07.765Z,98611.95
2022-10-04T12:42:20.189Z,98614.48
2022-10-04T12:45:26.315Z,98615.86
2022-10-04T12:52:47.876Z,98620.38
2022-10-04T12:55:39.623Z,98615.48
2022-10-04T12:59:20.181Z,98620.60
2022-10-04T13:02:30.342Z,98619.84
2022-10-04T13:05:51.976Z,98626.45
2022-10-04T13:12:04.498Z,98630.55
2022-10-04T13:15:28.430Z,98630.77
2022-10-04T13:18:57.505Z,98636.98
2022-10-04T13:21:58.921Z,98634.81
2022-10-04T13:24:59.622Z,98636.76
2022-10-04T13:27:52.919Z,98636.65
2022-10-04T13:31:35.068Z,98638.61
2022-10-04T13:35:06.312Z,98641.39
2022-10-04T13:38:07.825Z,98645.14
2022-10-04T13:40:59.737Z,98646.02
2022-10-04T13:44:08.345Z,98649.08
2022-10-04T13:47:15.164Z,98651.25
2022-10-04T13:50:15.380Z,98654.35
2022-10-04T13:53:27.876Z,98655.71
2022-10-04T13:56:48.481Z,98656.23
2022-10-04T13:59:33.640Z,98661.52
2022-10-04T14:03:18.793Z,98666.39
2022-10-04T14:06:20.121Z,98667.68
2022-10-04T14:09:18.260Z,98666.42
2022-10-04T14:12:04.319Z,98672.79
2022-10-04T14:15:10.556Z,98673.46
2022-10-04T14:18:19.787Z,98676.52
2022-10-04T14:21:25.249Z,98677.44
2022-10-04T14:28:11.206Z,98683.61
2022-10-04T14:31:21.804Z,98682.90
2022-10-04T14:34:15.067Z,98686.11
2022-10-04T14:37:14.345Z,98689.42
2022-10-04T14:49:00.405Z,98698.88
2022-10-04T14:51:39.944Z,98699.58
2022-10-04T14:55:43.520Z,98703.62
2022-10-04T14:59:20.624Z,98710.23
2022-10-04T15:13:11.048Z,98723.39
2022-10-04T15:16:16.000Z,98731.08
2022-10-04T15:19:04.936Z,98737.09
2022-10-04T15:22:03.936Z,98742.06
2022-10-04T15:24:54.960Z,98748.58
2022-10-04T15:27:52.021Z,98752.82
2022-10-04T15:30:52.723Z,98758.03
2022-10-04T15:33:51.763Z,98760.89
2022-10-04T15:36:54.620Z,98765.07
2022-10-04T15:39:36.045Z,98768.58
2022-10-04T15:42:22.688Z,98773.55
2022-10-04T15:45:18.575Z,98779.54
2022-10-04T15:47:58.089Z,98781.11
2022-10-04T15:50:42.816Z,98788.25
2022-10-04T15:53:59.506Z,98789.89
2022-10-04T15:56:49.957Z,98790.48
2022-10-04T15:59:43.262Z,98794.91
2022-10-04T16:03:05.826Z,98802.92
2022-10-04T16:06:02.434Z,98809.21
2022-10-04T16:08:48.746Z,98816.03
2022-10-04T16:11:39.520Z,98818.92
2022-10-04T16:14:26.847Z,98826.63
2022-10-04T16:17:00.091Z,98830.54
2022-10-04T16:19:55.839Z,98834.09
2022-10-04T16:22:32.818Z,98835.23
2022-10-04T16:25:19.451Z,98839.34
2022-10-04T16:27:50.805Z,98849.08
2022-10-04T16:30:28.876Z,98854.82
2022-10-04T16:33:29.002Z,98854.48
2022-10-04T16:36:19.898Z,98856.92
2022-10-04T16:39:12.419Z,98860.59
2022-10-04T16:41:59.894Z,98862.30
2022-10-04T16:44:50.500Z,98865.48
2022-10-04T16:47:30.367Z,98862.68
2022-10-04T16:50:10.183Z,98863.41
2022-10-04T16:53:20.973Z,98868.71
2022-10-04T16:56:06.349Z,98869.92
2022-10-04T16:58:55.356Z,98870.29
2022-10-04T17:02:28.194Z,98877.53
2022-10-04T17:05:21.663Z,98882.36
2022-10-04T17:12:01.747Z,98899.79
2022-10-04T17:14:50.266Z,98908.10
2022-10-04T17:17:33.090Z,98911.22
2022-10-04T17:20:30.682Z,98915.29
2022-10-04T17:23:30.381Z,98918.55
2022-10-04T17:26:46.005Z,98921.34
2022-10-04T17:29:38.800Z,98920.58
2022-10-04T17:32:24.882Z,98917.13
2022-10-04T17:35:19.379Z,98924.65
2022-10-04T17:37:48.288Z,98927.56
2022-10-04T17:40:48.237Z,98926.05
2022-10-04T17:43:34.817Z,98930.35
2022-10-04T17:46:21.677Z,98936.52
2022-10-04T17:49:38.312Z,98943.77
2022-10-04T17:52:59.835Z,98945.29
2022-10-04T17:55:44.235Z,98951.35
2022-10-04T17:58:47.622Z,98952.35
2022-10-04T18:01:18.934Z,98952.99
2022-10-04T18:03:57.711Z,98955.02
2022-10-04T18:06:37.977Z,98959.47
2022-10-04T18:09:42.877Z,98960.51
2022-10-04T18:12:35.614Z,98961.69
2022-10-04T18:15:21.281Z,98966.70
2022-10-04T18:17:51.067Z,98975.60
2022-10-04T18:20:26.445Z,98979.61
2022-10-04T18:23:22.122Z,98985.00
2022-10-04T18:25:59.938Z,98987.67
2022-10-04T18:28:28.298Z,98992.55
2022-10-04T18:31:21.050Z,98997.48
2022-10-04T18:33:51.891Z,98998.75
2022-10-04T18:36:31.381Z,98997.69
2022-10-04T18:39:11.619Z,99003.59
2022-10-04T18:42:07.784Z,99007.11
2022-10-04T18:44:48.194Z,99014.59
2022-10-04T18:47:26.710Z,99018.98
2022-10-04T18:50:14.808Z,99021.80
2022-10-04T18:53:01.468Z,99024.77
2022-10-04T18:56:02.334Z,99024.74
2022-10-04T18:59:00.929Z,99028.21
2022-10-04T19:01:56.978Z,99031.88
2022-10-04T19:04:45.801Z,99036.70
2022-10-04T19:07:27.593Z,99041.23
2022-10-04T19:10:33.313Z,99038.52
2022-10-04T19:13:26.329Z,99041.20
2022-10-04T19:15:54.506Z,99048.27
2022-10-04T19:18:44.446Z,99052.11
2022-10-04T19:21:49.621Z,99056.87
2022-10-04T19:24:35.337Z,99062.09
2022-10-04T19:27:24.113Z,99065.75
2022-10-04T19:30:25.648Z,99069.56
2022-10-04T19:33:05.156Z,99071.90
2022-10-04T19:35:42.317Z,99076.83
2022-10-04T19:38:52.606Z,99077.79
2022-10-04T19:41:47.051Z,99078.70
2022-10-04T19:44:40.891Z,99078.38
2022-10-04T19:47:43.533Z,99082.85
2022-10-04T19:50:23.987Z,99082.92
2022-10-04T19:53:07.642Z,99084.39
2022-10-04T19:56:00.815Z,99090.98
2022-10-04T19:58:45.126Z,99092.04
2022-10-04T20:01:19.509Z,99095.68
2022-10-04T20:04:08.418Z,99100.67
2022-10-04T20:06:38.541Z,99104.59
2022-10-04T20:09:37.947Z,99105.80
2022-10-04T20:12:54.613Z,99107.77
2022-10-04T20:15:31.740Z,99111.30
2022-10-04T20:18:20.586Z,99110.66
2022-10-04T20:20:54.826Z,99116.23
2022-10-04T20:23:59.614Z,99119.83
2022-10-04T20:26:54.417Z,99127.52
2022-10-04T20:29:38.918Z,99129.36
2022-10-04T20:32:09.557Z,99132.47
2022-10-04T20:34:39.457Z,99133.20
2022-10-04T20:37:10.131Z,99135.28
2022-10-04T20:43:16.400Z,99138.61
2022-10-04T20:45:57.960Z,99138.77
2022-10-04T20:48:28.508Z,99139.10
2022-10-04T20:51:09.794Z,99139.08
2022-10-04T20:53:47.123Z,99142.71
2022-10-04T20:56:29.354Z,99142.60
2022-10-04T20:59:03.382Z,99147.52
2022-10-04T21:01:36.427Z,99147.88
2022-10-04T21:04:19.788Z,99148.33
2022-10-04T21:06:52.783Z,99150.55
2022-10-04T21:09:21.861Z,99154.96
2022-10-04T21:11:57.676Z,99160.03
2022-10-04T21:14:36.639Z,99165.77
2022-10-04T21:17:25.104Z,99166.21
2022-10-04T21:19:54.045Z,99168.65
2022-10-04T21:22:31.386Z,99166.21
2022-10-04T21:25:01.471Z,99171.35
2022-10-04T21:27:32.210Z,99176.48
2022-10-04T21:30:14.051Z,99173.89
2022-10-04T21:32:42.584Z,99168.90
2022-10-04T21:35:12.288Z,99165.10
2022-10-04T21:37:40.416Z,99166.46
2022-10-04T21:40:08.892Z,99166.80
2022-10-04T21:42:37.102Z,99169.27
2022-10-04T21:45:05.433Z,99168.77
2022-10-04T21:47:33.514Z,99176.57
2022-10-04T21:50:01.533Z,99174.60
2022-10-04T21:52:29.894Z,99174.39
2022-10-04T21:54:58.135Z,99180.08
2022-10-04T21:57:26.284Z,99175.79
2022-10-04T21:59:54.264Z,99177.23
2022-10-04T22:02:22.414Z,99180.06
2022-10-04T22:04:50.494Z,99183.63
2022-10-04T22:07:18.535Z,99187.95
2022-10-04T22:09:46.658Z,99191.52
2022-10-04T22:12:14.812Z,99194.63
2022-10-04T22:14:42.949Z,99191.69
2022-10-04T22:17:11.892Z,99196.48
2022-10-04T22:19:39.974Z,99197.38
2022-10-04T22:22:39.964Z,99201.86
2022-10-04T22:25:22.151Z,99208.79
2022-10-04T22:27:52.019Z,99212.27
2022-10-04T22:30:20.728Z,99211.73
2022-10-04T22:32:49.786Z,99212.23
2022-10-04T22:35:20.333Z,99214.53
2022-10-04T22:37:49.581Z,99212.59
2022-10-04T22:40:25.098Z,99214.94
2022-10-04T22:42:59.334Z,99217.18
2022-10-04T22:45:33.731Z,99217.77
2022-10-04T22:48:10.727Z,99217.41
2022-10-04T22:50:38.916Z,99219.98
2022-10-04T22:53:16.971Z,99225.73
2022-10-04T22:55:45.343Z,99235.70
2022-10-04T22:58:14.965Z,99240.50
2022-10-04T23:00:44.823Z,99241.26
2022-10-04T23:03:28.409Z,99244.67
2022-10-04T23:05:56.857Z,99242.40
2022-10-04T23:08:25.436Z,99237.23
2022-10-04T23:10:56.508Z,99238.33
2022-10-04T23:13:27.131Z,99235.77
2022-10-04T23:16:00.672Z,99235.09
2022-10-04T23:18:30.605Z,99235.77
2022-10-04T23:21:01.919Z,99234.83
2022-10-04T23:23:31.646Z,99239.67
2022-10-04T23:25:59.839Z,99234.87
2022-10-04T23:28:28.047Z,99238.89
2022-10-04T23:31:05.852Z,99239.89
2022-10-04T23:33:34.670Z,99238.64
2022-10-04T23:36:08.687Z,99238.21
2022-10-04T23:38:36.854Z,99242.33
2022-10-04T23:41:11.415Z,99244.65
2022-10-04T23:43:39.609Z,99242.75
2022-10-04T23:46:18.506Z,99249.81
2022-10-04T23:48:48.083Z,99257.15
2022-10-04T23:51:20.096Z,99261.34
2022-10-04T23:53:49.891Z,99262.75
2022-10-04T23:56:23.225Z,99255.66
2022-10-04T23:58:55.624Z,99249.00
